createdAt,value
2022-08-19T00:00:36.930Z,3174
2022-08-19T00:01:38.051Z,3125
2022-08-19T00:02:36.946Z,3139
2022-08-19T00:03:36.925Z,3149
2022-08-19T00:04:36.975Z,3149
2022-08-19T00:05:36.922Z,3130
2022-08-19T00:06:36.930Z,3169
2022-08-19T00:07:36.933Z,3095
2022-08-19T00:08:36.921Z,3142
2022-08-19T00:09:36.927Z,3169
2022-08-19T00:10:36.922Z,3171
2022-08-19T00:11:36.912Z,3147
2022-08-19T00:12:36.912Z,3152
2022-08-19T00:13:36.943Z,3149
2022-08-19T00:14:36.912Z,3176
2022-08-19T00:15:36.907Z,3157
2022-08-19T00:16:36.912Z,3130
2022-08-19T00:17:36.912Z,3134
2022-08-19T00:18:36.920Z,3095
2022-08-19T00:19:36.911Z,3144
2022-08-19T00:20:36.903Z,3147
2022-08-19T00:21:36.917Z,3125
2022-08-19T00:22:36.899Z,3137
2022-08-19T00:23:36.898Z,3130
2022-08-19T00:24:36.893Z,3117
2022-08-19T00:25:36.912Z,3142
2022-08-19T00:26:36.904Z,3137
2022-08-19T00:27:36.912Z,3112
2022-08-19T00:28:36.895Z,3166
2022-08-19T00:29:36.898Z,3161
2022-08-19T00:30:36.905Z,3098
2022-08-19T00:31:36.908Z,3122
2022-08-19T00:32:36.892Z,3117
2022-08-19T00:33:36.892Z,3130
2022-08-19T00:34:36.887Z,3105
2022-08-19T00:35:36.899Z,3142
2022-08-19T00:36:36.884Z,3139
2022-08-19T00:37:36.886Z,3125
2022-08-19T00:38:37.470Z,3125
2022-08-19T00:39:36.955Z,3147
2022-08-19T00:40:36.889Z,3134
2022-08-19T00:41:36.882Z,3142
2022-08-19T00:42:36.892Z,3105
2022-08-19T00:43:36.878Z,3112
2022-08-19T00:44:36.886Z,3149
2022-08-19T00:45:36.880Z,3144
2022-08-19T00:46:36.884Z,3157
2022-08-19T00:47:36.875Z,3132
2022-08-19T00:48:36.869Z,3112
2022-08-19T00:49:36.870Z,3100
2022-08-19T00:50:36.880Z,3127
2022-08-19T00:51:36.870Z,3122
2022-08-19T00:52:36.879Z,3117
2022-08-19T00:53:36.869Z,3107
2022-08-19T00:54:36.865Z,3095
2022-08-19T00:55:36.869Z,3149
2022-08-19T00:56:36.867Z,3093
2022-08-19T00:57:36.874Z,3130
2022-08-19T00:58:36.869Z,3125
2022-08-19T01:00:01.186Z,3127
2022-08-19T01:00:36.862Z,3107
2022-08-19T01:01:36.991Z,3105
2022-08-19T01:02:36.886Z,3112
2022-08-19T01:03:56.821Z,3122
2022-08-19T01:04:36.850Z,3105
2022-08-19T01:05:36.846Z,3102
2022-08-19T01:06:36.867Z,3107
2022-08-19T01:07:38.097Z,3100
2022-08-19T01:08:36.853Z,3115
2022-08-19T01:09:36.877Z,3107
2022-08-19T01:10:37.048Z,3122
2022-08-19T01:11:36.850Z,3080
2022-08-19T01:12:36.853Z,3117
2022-08-19T01:13:49.448Z,3112
2022-08-19T01:14:36.843Z,3105
2022-08-19T01:15:36.844Z,3098
2022-08-19T01:16:36.846Z,3105
2022-08-19T01:17:36.849Z,3095
2022-08-19T01:18:36.849Z,3068
2022-08-19T01:19:43.566Z,3125
2022-08-19T01:20:36.844Z,3076
2022-08-19T01:21:36.836Z,3098
2022-08-19T01:22:36.832Z,3105
2022-08-19T01:23:36.841Z,3088
2022-08-19T01:24:36.835Z,3105
2022-08-19T01:25:36.831Z,3102
2022-08-19T01:26:36.835Z,3080
2022-08-19T01:27:42.993Z,3102
2022-08-19T01:28:40.165Z,3090
2022-08-19T01:29:36.822Z,3056
2022-08-19T01:30:36.828Z,3076
2022-08-19T01:31:36.829Z,3088
2022-08-19T01:32:36.838Z,3073
2022-08-19T01:33:36.835Z,3063
2022-08-19T01:34:36.833Z,3078
2022-08-19T01:35:36.819Z,3095
2022-08-19T01:36:36.816Z,3066
2022-08-19T01:37:36.826Z,3083
2022-08-19T01:38:36.817Z,3095
2022-08-19T01:39:36.889Z,3095
2022-08-19T01:40:36.826Z,3095
2022-08-19T01:41:36.817Z,3100
2022-08-19T01:42:36.807Z,3095
2022-08-19T01:43:36.809Z,3088
2022-08-19T01:44:36.809Z,3083
2022-08-19T01:45:36.824Z,3093
2022-08-19T01:46:36.805Z,3105
2022-08-19T01:47:36.812Z,3073
2022-08-19T01:48:36.797Z,3068
2022-08-19T01:49:36.803Z,3093
2022-08-19T01:50:36.820Z,3058
2022-08-19T01:51:39.861Z,3090
2022-08-19T01:52:36.809Z,3056
2022-08-19T01:53:36.802Z,3063
2022-08-19T01:54:36.799Z,3102
2022-08-19T01:55:36.804Z,3058
2022-08-19T01:56:36.792Z,3049
2022-08-19T01:57:36.804Z,3090
2022-08-19T01:58:36.792Z,3066
2022-08-19T01:59:36.789Z,3107
2022-08-19T02:00:36.788Z,3085
2022-08-19T02:01:36.871Z,3068
2022-08-19T02:02:36.823Z,3051
2022-08-19T02:03:36.788Z,3058
2022-08-19T02:04:36.789Z,3031
2022-08-19T02:05:36.794Z,3056
2022-08-19T02:06:36.786Z,3076
2022-08-19T02:07:36.793Z,3066
2022-08-19T02:08:36.778Z,3053
2022-08-19T02:09:36.775Z,3056
2022-08-19T02:10:36.779Z,3051
2022-08-19T02:11:36.792Z,3049
2022-08-19T02:12:36.782Z,3034
2022-08-19T02:13:36.785Z,3080
2022-08-19T02:14:36.772Z,3068
2022-08-19T02:15:36.767Z,3031
2022-08-19T02:16:36.777Z,3056
2022-08-19T02:17:36.770Z,3066
2022-08-19T02:18:36.777Z,3078
2022-08-19T02:19:36.765Z,3066
2022-08-19T02:20:36.763Z,3058
2022-08-19T02:21:36.773Z,3049
2022-08-19T02:22:36.770Z,3034
2022-08-19T02:23:36.774Z,3068
2022-08-19T02:24:36.758Z,3061
2022-08-19T02:25:36.759Z,3049
2022-08-19T02:26:36.765Z,3031
2022-08-19T02:27:36.758Z,3053
2022-08-19T02:28:36.765Z,3056
2022-08-19T02:29:36.762Z,3026
2022-08-19T02:30:36.757Z,3039
2022-08-19T02:31:36.769Z,3071
2022-08-19T02:32:44.494Z,3051
2022-08-19T02:33:36.746Z,3056
2022-08-19T02:34:36.749Z,3053
2022-08-19T02:35:36.752Z,3044
2022-08-19T02:36:36.755Z,3034
2022-08-19T02:37:36.748Z,3036
2022-08-19T02:38:36.746Z,3041
2022-08-19T02:39:36.782Z,3044
2022-08-19T02:40:36.747Z,3041
2022-08-19T02:41:36.749Z,3029
2022-08-19T02:42:36.741Z,3026
2022-08-19T02:43:36.743Z,3046
2022-08-19T02:44:36.744Z,3051
2022-08-19T02:45:36.742Z,3012
2022-08-19T02:46:36.759Z,3024
2022-08-19T02:47:36.756Z,3022
2022-08-19T02:48:36.761Z,3034
2022-08-19T02:49:36.745Z,3041
2022-08-19T02:50:36.747Z,3056
2022-08-19T02:51:36.749Z,3049
2022-08-19T02:52:36.744Z,3036
2022-08-19T02:53:36.754Z,3034
2022-08-19T02:54:36.746Z,3046
2022-08-19T02:55:46.253Z,3049
2022-08-19T02:56:36.745Z,3049
2022-08-19T02:57:36.753Z,3061
2022-08-19T02:58:36.743Z,3053
2022-08-19T02:59:36.741Z,3026
2022-08-19T03:00:36.737Z,3049
2022-08-19T03:01:36.803Z,3073
2022-08-19T03:02:36.772Z,3051
2022-08-19T03:03:36.733Z,3041
2022-08-19T03:04:36.740Z,3053
2022-08-19T03:05:47.992Z,3061
2022-08-19T03:06:36.720Z,3039
2022-08-19T03:07:36.736Z,3046
2022-08-19T03:08:36.737Z,3044
2022-08-19T03:09:36.729Z,3022
2022-08-19T03:10:36.725Z,3024
2022-08-19T03:11:36.718Z,3039
2022-08-19T03:12:36.728Z,3041
2022-08-19T03:13:36.716Z,3053
2022-08-19T03:14:36.722Z,3039
2022-08-19T03:15:36.719Z,3031
2022-08-19T03:16:36.714Z,3036
2022-08-19T03:17:36.723Z,3009
2022-08-19T03:18:36.711Z,3039
2022-08-19T03:19:36.716Z,3041
2022-08-19T03:20:36.708Z,3022
2022-08-19T03:21:36.710Z,3019
2022-08-19T03:22:36.715Z,2992
2022-08-19T03:23:36.709Z,3036
2022-08-19T03:24:36.705Z,3051
2022-08-19T03:25:36.712Z,3029
2022-08-19T03:26:36.705Z,3014
2022-08-19T03:27:36.701Z,3017
2022-08-19T03:28:36.708Z,3019
2022-08-19T03:29:40.660Z,2990
2022-08-19T03:30:36.712Z,3019
2022-08-19T03:31:44.156Z,3014
2022-08-19T03:32:36.697Z,3014
2022-08-19T03:33:36.693Z,3031
2022-08-19T03:34:36.702Z,3009
2022-08-19T03:35:36.688Z,3009
2022-08-19T03:36:36.693Z,3031
2022-08-19T03:37:36.688Z,3044
2022-08-19T03:38:36.691Z,3017
2022-08-19T03:39:36.757Z,3019
2022-08-19T03:40:36.696Z,3004
2022-08-19T03:41:45.196Z,3004
2022-08-19T03:42:49.368Z,2990
2022-08-19T03:43:36.685Z,3012
2022-08-19T03:44:36.693Z,3039
2022-08-19T03:45:36.683Z,2970
2022-08-19T03:46:36.688Z,3012
2022-08-19T03:47:36.679Z,2999
2022-08-19T03:48:36.678Z,3007
2022-08-19T03:49:36.848Z,3014
2022-08-19T03:50:36.682Z,3019
2022-08-19T03:51:36.678Z,2975
2022-08-19T03:52:36.680Z,3029
2022-08-19T03:53:36.676Z,3036
2022-08-19T03:54:36.679Z,3014
2022-08-19T03:55:36.674Z,2995
2022-08-19T03:56:36.671Z,2982
2022-08-19T03:57:37.862Z,2963
2022-08-19T03:58:36.677Z,2980
2022-08-19T03:59:36.678Z,2985
2022-08-19T04:00:36.663Z,2987
2022-08-19T04:01:36.750Z,2970
2022-08-19T04:02:36.697Z,2955
2022-08-19T04:03:36.661Z,2945
2022-08-19T04:04:36.671Z,2972
2022-08-19T04:05:36.657Z,2963
2022-08-19T04:06:39.596Z,2965
2022-08-19T04:07:36.672Z,2982
2022-08-19T04:08:36.666Z,2972
2022-08-19T04:09:36.655Z,2985
2022-08-19T04:10:36.660Z,2943
2022-08-19T04:11:43.389Z,2972
2022-08-19T04:12:36.657Z,2938
2022-08-19T04:13:36.652Z,3034
2022-08-19T04:14:36.654Z,3026
2022-08-19T04:15:36.647Z,3036
2022-08-19T04:16:36.645Z,3120
2022-08-19T04:17:36.642Z,3112
2022-08-19T04:18:36.651Z,3100
2022-08-19T04:19:36.647Z,3105
2022-08-19T04:20:36.647Z,3076
2022-08-19T04:21:36.645Z,3078
2022-08-19T04:22:36.650Z,3093
2022-08-19T04:23:36.636Z,3127
2022-08-19T04:24:36.641Z,3174
2022-08-19T04:25:36.641Z,3159
2022-08-19T04:26:36.631Z,3186
2022-08-19T04:27:36.650Z,3223
2022-08-19T04:28:36.635Z,3255
2022-08-19T04:29:36.649Z,3257
2022-08-19T04:30:36.631Z,3338
2022-08-19T04:31:36.633Z,3225
2022-08-19T04:32:36.634Z,3171
2022-08-19T04:33:36.638Z,3215
2022-08-19T04:34:36.632Z,3264
2022-08-19T04:35:36.630Z,3434
2022-08-19T04:36:36.621Z,3417
2022-08-19T04:37:36.625Z,3493
2022-08-19T04:38:36.625Z,3517
2022-08-19T04:39:36.679Z,3520
2022-08-19T04:40:36.623Z,3576
2022-08-19T04:41:36.618Z,3586
2022-08-19T04:42:36.618Z,3625
2022-08-19T04:43:36.613Z,3576
2022-08-19T04:44:36.616Z,3507
2022-08-19T04:45:43.513Z,3488
2022-08-19T04:46:39.218Z,3385
2022-08-19T04:47:47.998Z,3323
2022-08-19T04:48:36.614Z,3370
2022-08-19T04:49:36.618Z,3304
2022-08-19T04:50:36.603Z,3267
2022-08-19T04:51:36.615Z,3316
2022-08-19T04:52:36.602Z,3309
2022-08-19T04:53:37.535Z,3230
2022-08-19T04:54:38.497Z,3247
2022-08-19T04:55:38.323Z,3203
2022-08-19T04:56:36.613Z,3218
2022-08-19T04:57:36.598Z,3198
2022-08-19T04:58:36.599Z,3215
2022-08-19T04:59:36.601Z,3198
2022-08-19T05:00:36.653Z,3166
2022-08-19T05:01:36.622Z,3206
2022-08-19T05:02:36.610Z,3164
2022-08-19T05:03:36.590Z,3183
2022-08-19T05:04:36.589Z,3181
2022-08-19T05:05:44.652Z,3142
2022-08-19T05:06:36.593Z,3142
2022-08-19T05:07:36.594Z,3176
2022-08-19T05:08:36.590Z,3161
2022-08-19T05:09:57.136Z,3237
2022-08-19T05:10:36.586Z,3228
2022-08-19T05:11:36.609Z,3431
2022-08-19T05:12:36.579Z,3689
2022-08-19T05:13:36.605Z,4018
2022-08-19T05:14:36.589Z,4023
2022-08-19T05:15:36.584Z,4187
2022-08-19T05:16:36.586Z,4192
2022-08-19T05:17:38.886Z,4369
2022-08-19T05:18:36.575Z,4376
2022-08-19T05:19:36.567Z,4172
2022-08-19T05:20:36.574Z,4278
2022-08-19T05:21:36.584Z,4207
2022-08-19T05:22:36.575Z,4182
2022-08-19T05:23:36.563Z,4202
2022-08-19T05:24:47.432Z,4175
2022-08-19T05:25:36.568Z,4177
2022-08-19T05:26:36.577Z,4354
2022-08-19T05:27:36.566Z,4462
2022-08-19T05:28:36.595Z,4349
2022-08-19T05:29:36.703Z,4479
2022-08-19T05:30:46.844Z,4349
2022-08-19T05:31:36.581Z,4592
2022-08-19T05:32:36.567Z,4641
2022-08-19T05:33:36.555Z,4707
2022-08-19T05:34:36.551Z,4599
2022-08-19T05:35:36.554Z,4415
2022-08-19T05:36:36.565Z,4332
2022-08-19T05:37:36.549Z,4273
2022-08-19T05:38:36.564Z,4190
2022-08-19T05:39:36.639Z,4204
2022-08-19T05:40:36.545Z,4332
2022-08-19T05:41:36.543Z,4315
2022-08-19T05:42:36.558Z,4369
2022-08-19T05:43:36.544Z,4221
2022-08-19T05:44:36.542Z,4280
2022-08-19T05:45:36.546Z,4187
2022-08-19T05:46:36.548Z,4194
2022-08-19T05:47:36.560Z,4175
2022-08-19T05:48:36.572Z,4086
2022-08-19T05:49:36.547Z,4084
2022-08-19T05:50:36.548Z,4126
2022-08-19T05:51:36.537Z,4084
2022-08-19T05:52:36.539Z,4064
2022-08-19T05:53:36.532Z,4040
2022-08-19T05:54:36.542Z,4059
2022-08-19T05:55:36.529Z,4052
2022-08-19T05:56:36.531Z,4037
2022-08-19T05:57:36.541Z,4023
2022-08-19T05:58:36.530Z,4008
2022-08-19T05:59:36.534Z,4015
2022-08-19T06:00:36.531Z,4008
2022-08-19T06:01:36.530Z,4013
2022-08-19T06:02:36.562Z,3969
2022-08-19T06:03:36.545Z,3976
2022-08-19T06:04:36.526Z,3971
2022-08-19T06:05:42.315Z,3851
2022-08-19T06:06:36.530Z,3775
2022-08-19T06:07:36.523Z,3821
2022-08-19T06:08:36.510Z,3768
2022-08-19T06:09:36.543Z,3755
2022-08-19T06:10:36.516Z,3704
2022-08-19T06:11:36.515Z,3591
2022-08-19T06:12:36.513Z,3630
2022-08-19T06:13:36.510Z,3586
2022-08-19T06:14:36.523Z,3576
2022-08-19T06:15:36.507Z,3566
2022-08-19T06:16:36.505Z,3552
2022-08-19T06:17:36.501Z,3544
2022-08-19T06:18:36.507Z,3507
2022-08-19T06:19:40.564Z,3598
2022-08-19T06:20:55.071Z,3520
2022-08-19T06:21:36.506Z,3495
2022-08-19T06:22:36.515Z,3586
2022-08-19T06:23:36.500Z,3601
2022-08-19T06:24:36.512Z,3586
2022-08-19T06:25:36.513Z,3650
2022-08-19T06:26:36.607Z,3687
2022-08-19T06:27:37.850Z,3824
2022-08-19T06:28:36.507Z,3777
2022-08-19T06:29:36.493Z,3807
2022-08-19T06:30:36.497Z,3792
2022-08-19T06:31:36.499Z,3819
2022-08-19T06:32:39.897Z,3853
2022-08-19T06:33:36.511Z,3898
2022-08-19T06:34:36.483Z,3902
2022-08-19T06:35:36.534Z,3934
2022-08-19T06:36:36.487Z,3959
2022-08-19T06:37:37.878Z,3964
2022-08-19T06:38:36.484Z,3949
2022-08-19T06:39:36.556Z,3942
2022-08-19T06:40:36.566Z,4001
2022-08-19T06:41:39.459Z,4091
2022-08-19T06:42:36.478Z,4106
2022-08-19T06:43:36.488Z,4165
2022-08-19T06:44:40.587Z,4192
2022-08-19T06:45:39.406Z,4160
2022-08-19T06:46:36.493Z,4163
2022-08-19T06:47:36.489Z,4219
2022-08-19T06:48:45.002Z,4246
2022-08-19T06:49:36.467Z,4263
2022-08-19T06:50:39.612Z,4307
2022-08-19T06:51:36.551Z,4246
2022-08-19T06:52:38.174Z,4244
2022-08-19T06:53:36.466Z,4285
2022-08-19T06:54:37.749Z,4295
2022-08-19T06:55:36.464Z,4369
2022-08-19T06:56:36.462Z,4381
2022-08-19T06:57:36.470Z,4366
2022-08-19T06:58:36.483Z,4366
2022-08-19T06:59:36.470Z,4425
2022-08-19T07:00:36.457Z,4371
2022-08-19T07:01:36.461Z,4364
2022-08-19T07:02:36.472Z,4325
2022-08-19T07:03:37.341Z,4298
2022-08-19T07:04:36.459Z,4280
2022-08-19T07:05:36.444Z,4275
2022-08-19T07:06:43.945Z,4192
2022-08-19T07:07:36.460Z,4113
2022-08-19T07:09:36.444Z,4109
2022-08-19T07:10:36.456Z,4077
2022-08-19T07:11:36.438Z,4050
2022-08-19T07:12:38.171Z,3979
2022-08-19T07:13:36.437Z,3952
2022-08-19T07:14:36.449Z,3888
2022-08-19T07:15:36.443Z,3878
2022-08-19T07:16:37.357Z,3880
2022-08-19T07:17:36.449Z,3944
2022-08-19T07:18:36.434Z,3937
2022-08-19T07:19:36.432Z,4094
2022-08-19T07:20:36.444Z,4165
2022-08-19T07:21:37.595Z,4342
2022-08-19T07:22:36.450Z,4327
2022-08-19T07:24:36.443Z,4175
2022-08-19T07:25:36.456Z,4172
2022-08-19T07:26:36.431Z,4084
2022-08-19T07:27:36.425Z,4077
2022-08-19T07:28:36.428Z,3993
2022-08-19T07:29:36.441Z,3959
2022-08-19T07:30:36.509Z,3873
2022-08-19T07:31:36.426Z,3856
2022-08-19T07:32:36.432Z,3814
2022-08-19T07:33:36.432Z,3834
2022-08-19T07:34:36.420Z,3824
2022-08-19T07:35:36.425Z,3799
2022-08-19T07:36:36.411Z,3856
2022-08-19T07:37:36.418Z,3907
2022-08-19T07:38:36.426Z,3971
2022-08-19T07:39:36.487Z,4020
2022-08-19T07:40:36.414Z,4047
2022-08-19T07:41:36.411Z,4055
2022-08-19T07:42:36.402Z,3993
2022-08-19T07:43:36.426Z,4028
2022-08-19T07:44:36.495Z,3929
2022-08-19T07:45:36.406Z,3922
2022-08-19T07:46:36.409Z,4028
2022-08-19T07:47:50.347Z,4045
2022-08-19T07:48:36.415Z,4101
2022-08-19T07:49:36.405Z,4160
2022-08-19T07:50:36.400Z,4131
2022-08-19T07:51:37.273Z,4194
2022-08-19T07:52:36.396Z,4231
2022-08-19T07:53:39.636Z,4150
2022-08-19T07:54:36.399Z,4224
2022-08-19T07:55:41.131Z,4226
2022-08-19T07:56:36.395Z,4467
2022-08-19T07:57:36.469Z,4374
2022-08-19T07:58:36.408Z,4690
2022-08-19T07:59:36.387Z,4590
2022-08-19T08:00:36.388Z,4212
2022-08-19T08:01:36.421Z,4121
2022-08-19T08:02:36.404Z,4109
2022-08-19T08:03:36.419Z,4079
2022-08-19T08:04:36.382Z,4077
2022-08-19T08:05:38.749Z,4123
2022-08-19T08:06:36.401Z,4033
2022-08-19T08:07:36.373Z,3956
2022-08-19T08:08:36.383Z,4013
2022-08-19T08:09:39.272Z,4055
2022-08-19T08:10:36.381Z,3952
2022-08-19T08:11:36.388Z,3910
2022-08-19T08:12:36.390Z,3829
2022-08-19T08:13:36.367Z,3792
2022-08-19T08:14:36.366Z,3745
2022-08-19T08:15:41.308Z,3718
2022-08-19T08:16:39.414Z,3714
2022-08-19T08:17:49.477Z,3679
2022-08-19T08:18:36.381Z,3689
2022-08-19T08:19:36.369Z,3677
2022-08-19T08:20:36.362Z,3657
2022-08-19T08:21:36.445Z,3630
2022-08-19T08:22:36.376Z,3623
2022-08-19T08:23:36.375Z,3645
2022-08-19T08:24:36.355Z,3782
2022-08-19T08:25:36.393Z,3799
2022-08-19T08:26:36.356Z,3782
2022-08-19T08:27:36.355Z,3809
2022-08-19T08:28:36.369Z,3964
2022-08-19T08:29:36.354Z,3809
2022-08-19T08:30:36.353Z,3900
2022-08-19T08:31:36.348Z,4015
2022-08-19T08:32:36.344Z,4040
2022-08-19T08:33:36.360Z,4072
2022-08-19T08:34:36.350Z,4018
2022-08-19T08:35:36.347Z,3998
2022-08-19T08:36:36.362Z,4020
2022-08-19T08:37:36.340Z,3971
2022-08-19T08:38:39.683Z,3853
2022-08-19T08:39:36.381Z,3834
2022-08-19T08:40:36.343Z,3848
2022-08-19T08:41:36.345Z,3824
2022-08-19T08:42:36.344Z,3836
2022-08-19T08:43:36.353Z,3819
2022-08-19T08:44:36.340Z,3780
2022-08-19T08:45:41.184Z,3809
2022-08-19T08:46:36.329Z,3829
2022-08-19T08:47:36.357Z,3834
2022-08-19T08:48:36.340Z,3880
2022-08-19T08:49:36.334Z,3927
2022-08-19T08:50:36.349Z,3907
2022-08-19T08:51:36.390Z,3986
2022-08-19T08:52:36.389Z,4094
2022-08-19T08:53:40.451Z,4045
2022-08-19T08:54:36.378Z,4199
2022-08-19T08:55:36.865Z,4133
2022-08-19T08:56:36.332Z,4246
2022-08-19T08:57:40.820Z,4138
2022-08-19T08:58:36.359Z,4153
2022-08-19T08:59:36.359Z,4148
2022-08-19T09:00:36.349Z,4212
2022-08-19T09:01:36.369Z,4172
2022-08-19T09:02:36.354Z,3947
2022-08-19T09:03:36.373Z,3866
2022-08-19T09:04:36.337Z,3851
2022-08-19T09:05:39.524Z,3902
2022-08-19T09:06:36.337Z,4010
2022-08-19T09:07:38.016Z,4035
2022-08-19T09:08:36.338Z,4082
2022-08-19T09:09:36.331Z,4094
2022-08-19T09:10:36.342Z,4101
2022-08-19T09:11:42.386Z,4094
2022-08-19T09:12:36.342Z,4072
2022-08-19T09:13:37.370Z,4111
2022-08-19T09:14:52.031Z,4077
2022-08-19T09:15:36.845Z,4055
2022-08-19T09:16:36.318Z,4283
2022-08-19T09:17:36.544Z,4158
2022-08-19T09:18:36.340Z,4140
2022-08-19T09:19:36.326Z,4138
2022-08-19T09:20:36.313Z,4113
2022-08-19T09:21:36.316Z,4106
2022-08-19T09:22:36.331Z,4153
2022-08-19T09:23:36.320Z,4194
2022-08-19T09:24:36.329Z,4207
2022-08-19T09:25:36.327Z,4258
2022-08-19T09:26:47.552Z,4285
2022-08-19T09:27:42.723Z,4229
2022-08-19T09:28:36.308Z,4229
2022-08-19T09:29:36.306Z,4263
2022-08-19T09:30:36.328Z,4244
2022-08-19T09:31:36.306Z,4182
2022-08-19T09:32:36.326Z,4175
2022-08-19T09:33:36.306Z,4138
2022-08-19T09:34:37.929Z,4150
2022-08-19T09:35:50.115Z,4096
2022-08-19T09:36:36.316Z,4091
2022-08-19T09:37:36.314Z,4067
2022-08-19T09:38:36.296Z,4023
2022-08-19T09:39:36.299Z,3964
2022-08-19T09:40:38.514Z,4003
2022-08-19T09:41:36.298Z,3966
2022-08-19T09:42:36.298Z,3979
2022-08-19T09:43:44.600Z,3988
2022-08-19T09:44:36.310Z,3983
2022-08-19T09:45:36.292Z,3910
2022-08-19T09:46:36.292Z,3947
2022-08-19T09:47:36.317Z,4006
2022-08-19T09:48:36.307Z,3993
2022-08-19T09:49:36.315Z,4023
2022-08-19T09:50:36.284Z,4094
2022-08-19T09:51:36.289Z,4045
2022-08-19T09:52:36.295Z,3959
2022-08-19T09:53:36.295Z,3853
2022-08-19T09:54:37.077Z,3915
2022-08-19T09:55:36.285Z,3900
2022-08-19T09:56:36.293Z,3841
2022-08-19T09:57:36.274Z,3802
2022-08-19T09:58:36.294Z,3853
2022-08-19T09:59:36.288Z,3893
2022-08-19T10:00:36.274Z,3898
2022-08-19T10:01:36.286Z,4067
2022-08-19T10:02:36.276Z,4045
2022-08-19T10:03:36.306Z,4064
2022-08-19T10:04:36.266Z,4158
2022-08-19T10:05:36.280Z,4165
2022-08-19T10:06:44.098Z,4175
2022-08-19T10:07:36.761Z,4140
2022-08-19T10:08:36.261Z,4145
2022-08-19T10:09:36.259Z,4158
2022-08-19T10:10:36.259Z,4131
2022-08-19T10:11:40.623Z,4109
2022-08-19T10:12:36.260Z,4052
2022-08-19T10:13:36.260Z,4079
2022-08-19T10:14:36.281Z,4037
2022-08-19T10:15:45.234Z,3996
2022-08-19T10:16:39.563Z,3964
2022-08-19T10:17:36.257Z,3900
2022-08-19T10:18:36.252Z,3834
2022-08-19T10:19:36.242Z,3821
2022-08-19T10:20:36.247Z,3797
2022-08-19T10:21:36.266Z,3733
2022-08-19T10:22:36.257Z,3782
2022-08-19T10:23:36.244Z,3748
2022-08-19T10:24:36.248Z,3772
2022-08-19T10:25:36.241Z,3812
2022-08-19T10:26:36.255Z,3841
2022-08-19T10:27:36.242Z,3856
2022-08-19T10:28:36.239Z,3888
2022-08-19T10:29:36.234Z,3932
2022-08-19T10:30:36.234Z,4045
2022-08-19T10:31:59.835Z,3883
2022-08-19T10:32:36.237Z,3851
2022-08-19T10:33:40.939Z,3868
2022-08-19T10:34:36.255Z,3868
2022-08-19T10:35:42.796Z,3907
2022-08-19T10:36:36.236Z,3996
2022-08-19T10:37:36.235Z,4047
2022-08-19T10:38:36.227Z,4283
2022-08-19T10:39:42.474Z,4008
2022-08-19T10:40:36.303Z,3834
2022-08-19T10:41:36.224Z,3804
2022-08-19T10:42:36.238Z,3812
2022-08-19T10:43:36.224Z,3772
2022-08-19T10:44:36.222Z,3804
2022-08-19T10:45:36.240Z,3770
2022-08-19T10:46:36.228Z,3745
2022-08-19T10:47:36.244Z,3726
2022-08-19T10:48:36.210Z,3684
2022-08-19T10:49:36.220Z,3623
2022-08-19T10:50:36.224Z,3623
2022-08-19T10:51:36.229Z,3603
2022-08-19T10:52:39.119Z,3623
2022-08-19T10:53:36.211Z,3591
2022-08-19T10:54:36.211Z,3586
2022-08-19T10:55:36.210Z,3709
2022-08-19T10:56:36.220Z,3748
2022-08-19T10:57:59.318Z,3733
2022-08-19T10:58:36.207Z,3738
2022-08-19T10:59:36.390Z,3740
2022-08-19T11:00:36.205Z,3829
2022-08-19T11:01:36.299Z,3851
2022-08-19T11:02:36.249Z,3841
2022-08-19T11:03:36.243Z,3871
2022-08-19T11:04:36.204Z,3858
2022-08-19T11:05:39.868Z,3834
2022-08-19T11:06:36.197Z,3834
2022-08-19T11:07:36.195Z,3795
2022-08-19T11:08:36.220Z,3787
2022-08-19T11:09:36.207Z,3768
2022-08-19T11:10:36.195Z,3760
2022-08-19T11:11:39.352Z,3780
2022-08-19T11:12:36.195Z,3792
2022-08-19T11:13:36.224Z,3750
2022-08-19T11:14:36.190Z,3755
2022-08-19T11:15:36.179Z,3745
2022-08-19T11:16:36.201Z,3750
2022-08-19T11:17:36.183Z,3718
2022-08-19T11:18:36.184Z,3704
2022-08-19T11:19:36.182Z,3753
2022-08-19T11:20:36.186Z,3696
2022-08-19T11:21:36.197Z,3709
2022-08-19T11:22:40.579Z,3691
2022-08-19T11:23:36.189Z,3647
2022-08-19T11:24:36.172Z,3709
2022-08-19T11:25:36.171Z,3667
2022-08-19T11:26:36.176Z,3596
2022-08-19T11:27:36.172Z,3625
2022-08-19T11:28:36.206Z,3623
2022-08-19T11:29:36.170Z,3620
2022-08-19T11:30:36.169Z,3640
2022-08-19T11:31:36.161Z,3593
2022-08-19T11:32:36.166Z,3588
2022-08-19T11:33:36.177Z,3598
2022-08-19T11:34:36.165Z,3539
2022-08-19T11:35:36.161Z,3542
2022-08-19T11:36:36.178Z,3502
2022-08-19T11:37:36.165Z,3522
2022-08-19T11:38:36.160Z,3525
2022-08-19T11:39:36.210Z,3529
2022-08-19T11:40:36.187Z,3527
2022-08-19T11:41:36.154Z,3512
2022-08-19T11:42:36.154Z,3547
2022-08-19T11:43:37.602Z,3505
2022-08-19T11:44:36.870Z,3510
2022-08-19T11:45:36.166Z,3510
2022-08-19T11:46:36.147Z,3498
2022-08-19T11:47:36.149Z,3520
2022-08-19T11:48:36.157Z,3498
2022-08-19T11:49:36.150Z,3534
2022-08-19T11:50:36.144Z,3527
2022-08-19T11:51:36.159Z,3441
2022-08-19T11:52:36.141Z,3458
2022-08-19T11:53:36.145Z,3434
2022-08-19T11:54:36.139Z,3417
2022-08-19T11:55:36.139Z,3483
2022-08-19T11:56:36.155Z,3542
2022-08-19T11:57:36.142Z,3630
2022-08-19T11:58:36.135Z,3691
2022-08-19T11:59:36.181Z,3718
2022-08-19T12:00:36.133Z,3770
2022-08-19T12:01:36.134Z,3785
2022-08-19T12:02:36.133Z,3809
2022-08-19T12:03:36.210Z,3878
2022-08-19T12:04:36.147Z,3929
2022-08-19T12:05:36.146Z,3981
2022-08-19T12:06:36.122Z,3969
2022-08-19T12:07:36.190Z,3986
2022-08-19T12:08:36.125Z,3880
2022-08-19T12:09:36.124Z,3927
2022-08-19T12:10:36.137Z,3952
2022-08-19T12:11:36.115Z,3956
2022-08-19T12:12:36.120Z,3937
2022-08-19T12:13:36.118Z,3947
2022-08-19T12:14:36.125Z,3964
2022-08-19T12:15:36.924Z,3939
2022-08-19T12:16:37.803Z,3912
2022-08-19T12:17:36.120Z,3966
2022-08-19T12:18:36.127Z,3922
2022-08-19T12:19:36.113Z,3934
2022-08-19T12:20:36.513Z,3929
2022-08-19T12:21:36.134Z,3937
2022-08-19T12:22:36.112Z,3777
2022-08-19T12:23:36.110Z,3731
2022-08-19T12:24:36.102Z,3743
2022-08-19T12:25:36.100Z,3664
2022-08-19T12:26:36.119Z,3662
2022-08-19T12:27:40.785Z,3630
2022-08-19T12:28:36.103Z,3598
2022-08-19T12:29:36.104Z,3564
2022-08-19T12:30:36.101Z,3520
2022-08-19T12:31:36.111Z,3596
2022-08-19T12:32:36.099Z,3556
2022-08-19T12:33:36.103Z,3564
2022-08-19T12:34:36.088Z,3561
2022-08-19T12:35:36.097Z,3512
2022-08-19T12:36:36.126Z,3613
2022-08-19T12:37:36.099Z,3642
2022-08-19T12:38:36.103Z,3618
2022-08-19T12:39:36.214Z,3620
2022-08-19T12:40:36.081Z,3660
2022-08-19T12:41:36.127Z,3603
2022-08-19T12:42:36.085Z,3608
2022-08-19T12:43:36.087Z,3537
2022-08-19T12:44:36.082Z,3493
2022-08-19T12:45:36.078Z,3488
2022-08-19T12:46:36.090Z,3549
2022-08-19T12:47:38.790Z,3593
2022-08-19T12:48:36.075Z,3650
2022-08-19T12:49:53.160Z,3647
2022-08-19T12:50:36.084Z,3635
2022-08-19T12:51:36.074Z,3647
2022-08-19T12:52:36.073Z,3630
2022-08-19T12:53:39.204Z,3662
2022-08-19T12:54:36.073Z,3657
2022-08-19T12:55:36.067Z,3657
2022-08-19T12:56:36.064Z,3664
2022-08-19T12:57:36.068Z,3660
2022-08-19T12:58:36.086Z,3674
2022-08-19T12:59:36.067Z,3630
2022-08-19T13:00:36.121Z,3652
2022-08-19T13:01:36.061Z,3714
2022-08-19T13:02:38.155Z,3704
2022-08-19T13:03:40.347Z,3696
2022-08-19T13:04:36.054Z,3613
2022-08-19T13:05:37.050Z,3556
2022-08-19T13:06:36.057Z,3471
2022-08-19T13:07:36.071Z,3431
2022-08-19T13:08:36.071Z,3414
2022-08-19T13:09:36.057Z,3392
2022-08-19T13:10:36.058Z,3399
2022-08-19T13:11:36.063Z,3480
2022-08-19T13:12:36.051Z,3515
2022-08-19T13:13:36.065Z,3539
2022-08-19T13:14:36.054Z,3537
2022-08-19T13:15:36.051Z,3520
2022-08-19T13:16:36.045Z,3520
2022-08-19T13:17:36.043Z,3544
2022-08-19T13:18:36.053Z,3537
2022-08-19T13:19:36.043Z,3561
2022-08-19T13:20:36.045Z,3522